Terminal Aerodrome Forecast
Issued by NWS

Home | Current Version | Previous Version | Text Only | Print | Product List | Glossary On
Versions: 1 2 3 4 5 6 7 8 9 10 11 12 13 14 15 16 17 18 19 20 21
506
FTUS46 KSTO 180546
TAFMHR
TAF
KMHR 180546Z 1806/1906 30004KT 4SM HZ BKN005
     FM180800 13004KT 1SM BR OVC002
     FM181700 15013G20KT 2SM BR OVC005
     FM182000 15019G27KT 3SM RA BR OVC007
     FM190000 14025G33KT 3SM -RA BR OVC015=

USA.gov is the U.S. government's official web portal to all federal, state and local government web resources and services.